»·PEaware :: N915TB KAMA-KLSV

N915TB :: KAMA-KLSV

FLIGHT INFORMATION

Flight Status: Arrived
Operator: Privately registered:
United States
More flights under this callsign
Pilot: Jake M. (20491)
Aircraft: SOCATA TBM-900
(TBM9)
More flights by this aircraft type
Origin: KAMA Amarillo Intl
United States
Destination: KLSV Nellis AFB
United States
More flights between these airports :: More routes between these airports
Route: +PNH J58 FTI J76 TBC MMM
File this flight plan on PilotEdge
Remarks: RMK / SIMBRIEF
Altitude:
(Current/Filed)
28,000ft
Speed:
(Current/Filed)
316kts
Departed: 07-Apr-19 02:00 PM
Arrived: 07-Apr-19 04:40 PM
Distance/Time
Traveled:
652nm/2:40
Distance/Time
To Go:
Arrived

Flight Plot

Page will automatically refresh every two minutes.

Flight plan parsing failed; only flown route is shown


Map Options




Map Legend


Flown Route
Filed Route
Departure Airport
Arrival Airport
Navaid (VOR, NDB)
Fix

Horizontal Profiles

Position Reports

Time Latitude Longitude Heading Altitude Ground
Speed
07-Apr-19 13:41 35.217380 -101.709679 19 3609ft 0kts
07-Apr-19 13:42 35.217380 -101.709679 19 3609ft 0kts
07-Apr-19 13:43 35.217380 -101.709679 19 3609ft 0kts
07-Apr-19 13:44 35.217380 -101.709679 19 3609ft 0kts
07-Apr-19 13:45 35.217380 -101.709679 19 3609ft 0kts
07-Apr-19 13:46 35.217380 -101.709679 19 3609ft 0kts
07-Apr-19 13:47 35.217380 -101.709679 19 3609ft 0kts
07-Apr-19 13:48 35.217380 -101.709679 19 3609ft 0kts
07-Apr-19 13:49 35.217380 -101.709679 19 3609ft 0kts
07-Apr-19 13:50 35.217380 -101.709679 19 3609ft 0kts
07-Apr-19 13:51 35.217380 -101.709679 19 3609ft 0kts
07-Apr-19 13:52 35.217380 -101.709679 19 3609ft 0kts
07-Apr-19 13:53 35.217380 -101.709679 18 3609ft 0kts
07-Apr-19 13:54 35.218007 -101.711204 235 3609ft 17kts
07-Apr-19 13:55 35.212250 -101.718455 225 3609ft 32kts
07-Apr-19 13:56 35.206277 -101.725985 225 3609ft 28kts
07-Apr-19 13:57 35.203734 -101.730830 315 3609ft 0kts
07-Apr-19 13:58 35.205635 -101.732041 42 3609ft 16kts
07-Apr-19 13:59 35.217402 -101.717562 45 3854ft 96kts
07-Apr-19 14:00 35.240969 -101.689453 42 4511ft 136kts
07-Apr-19 14:01 35.270547 -101.664947 340 6350ft 136kts
07-Apr-19 14:02 35.278461 -101.715441 282 8123ft 165kts
07-Apr-19 14:03 35.284059 -101.770597 282 10134ft 162kts
07-Apr-19 14:04 35.290602 -101.824239 278 12041ft 157kts
07-Apr-19 14:05 35.297195 -101.878221 280 13650ft 162kts
07-Apr-19 14:06 35.304040 -101.933410 281 15109ft 167kts
07-Apr-19 14:07 35.311108 -101.990382 281 16452ft 171kts
07-Apr-19 14:08 35.318392 -102.049481 283 17907ft 178kts
07-Apr-19 14:09 35.325772 -102.109206 283 19539ft 179kts
07-Apr-19 14:10 35.333231 -102.170140 283 20989ft 183kts
07-Apr-19 14:11 35.340802 -102.232416 283 22309ft 186kts
07-Apr-19 14:12 35.348455 -102.295443 283 23498ft 189kts
07-Apr-19 14:13 35.356224 -102.359745 282 24587ft 191kts
07-Apr-19 14:14 35.364128 -102.425331 281 26058ft 195kts
07-Apr-19 14:15 35.372129 -102.492268 279 27419ft 199kts
07-Apr-19 14:16 35.380452 -102.562331 279 28136ft 228kts
07-Apr-19 14:17 35.390316 -102.646038 279 28130ft 262kts
07-Apr-19 14:18 35.401071 -102.737636 278 28125ft 278kts
07-Apr-19 14:19 35.412206 -102.833003 279 28123ft 284kts
07-Apr-19 14:20 35.423408 -102.929530 279 28124ft 286kts
07-Apr-19 14:21 35.434483 -103.025753 280 28122ft 283kts
07-Apr-19 14:22 35.445399 -103.121129 280 28116ft 282kts
07-Apr-19 14:23 35.456242 -103.216709 280 28109ft 282kts
07-Apr-19 14:24 35.466999 -103.312141 281 28109ft 281kts
07-Apr-19 14:25 35.477646 -103.407268 281 28108ft 282kts
07-Apr-19 14:26 35.488245 -103.502746 281 28110ft 282kts
07-Apr-19 14:27 35.497788 -103.589287 281 28109ft 283kts
07-Apr-19 14:28 35.508045 -103.682923 281 28111ft 284kts
07-Apr-19 14:29 35.518557 -103.779541 281 28120ft 287kts
07-Apr-19 14:30 35.529103 -103.877357 281 28116ft 286kts
07-Apr-19 14:31 35.539393 -103.973492 281 28129ft 283kts
07-Apr-19 14:32 35.549564 -104.069321 282 28159ft 281kts
07-Apr-19 14:33 35.559649 -104.164903 282 28188ft 280kts
07-Apr-19 14:34 35.569599 -104.260028 282 28191ft 281kts
07-Apr-19 14:35 35.579534 -104.355862 282 28191ft 281kts
07-Apr-19 14:36 35.589375 -104.451366 282 28191ft 281kts
07-Apr-19 14:37 35.599117 -104.546742 282 28190ft 281kts
07-Apr-19 14:38 35.608808 -104.642440 283 28224ft 280kts
07-Apr-19 14:39 35.618383 -104.737625 282 28228ft 280kts
07-Apr-19 14:40 35.627899 -104.833077 282 28227ft 281kts
07-Apr-19 14:41 35.637321 -104.928464 282 28228ft 281kts
07-Apr-19 14:42 35.646678 -105.023829 283 28227ft 281kts
07-Apr-19 14:43 35.655995 -105.119530 283 28229ft 281kts
07-Apr-19 14:45 35.665585 -105.214931 283 28226ft 280kts
07-Apr-19 14:46 35.675126 -105.309810 284 28226ft 280kts
07-Apr-19 14:47 35.684654 -105.405331 284 28225ft 280kts
07-Apr-19 14:48 35.694077 -105.500515 284 28227ft 280kts
07-Apr-19 14:49 35.703379 -105.595334 284 28226ft 279kts
07-Apr-19 14:50 35.712636 -105.690476 283 28224ft 279kts
07-Apr-19 14:51 35.721829 -105.785675 283 28220ft 279kts
07-Apr-19 14:52 35.730910 -105.880568 283 28218ft 279kts
07-Apr-19 14:53 35.739947 -105.975819 283 28225ft 279kts
07-Apr-19 14:54 35.748872 -106.070632 283 28234ft 279kts
07-Apr-19 14:55 35.757736 -106.165663 283 28246ft 278kts
07-Apr-19 14:56 35.766472 -106.260175 284 28255ft 278kts
07-Apr-19 14:57 35.775155 -106.354845 284 28262ft 278kts
07-Apr-19 14:58 35.783789 -106.449853 284 28261ft 278kts
07-Apr-19 14:59 35.792276 -106.544087 284 28262ft 277kts
07-Apr-19 15:00 35.800733 -106.638825 284 28258ft 277kts
07-Apr-19 15:01 35.809089 -106.733112 283 28257ft 277kts
07-Apr-19 15:02 35.817376 -106.827778 283 28255ft 277kts
07-Apr-19 15:03 35.825611 -106.922562 283 28244ft 276kts
07-Apr-19 15:04 35.833756 -107.017225 283 28230ft 276kts
07-Apr-19 15:04 35.840480 -107.096030 283 28223ft 275kts
07-Apr-19 15:06 35.849704 -107.205134 283 28225ft 275kts
07-Apr-19 15:07 35.857662 -107.300227 282 28227ft 279kts
07-Apr-19 15:07 35.864244 -107.379641 282 28240ft 279kts
07-Apr-19 15:08 35.872074 -107.474989 282 28258ft 279kts
07-Apr-19 15:10 35.881129 -107.586518 282 28259ft 279kts
07-Apr-19 15:11 35.888796 -107.681972 282 28262ft 279kts
07-Apr-19 15:11 35.895121 -107.761425 282 28263ft 279kts
07-Apr-19 15:12 35.902659 -107.857010 282 28256ft 279kts
07-Apr-19 15:13 35.910116 -107.952603 282 28246ft 279kts
07-Apr-19 15:14 35.917489 -108.048038 281 28242ft 279kts
07-Apr-19 15:15 35.924775 -108.143384 281 28249ft 278kts
07-Apr-19 15:16 35.931970 -108.238551 282 28258ft 278kts
07-Apr-19 15:17 35.939072 -108.333480 282 28259ft 277kts
07-Apr-19 15:18 35.946139 -108.428922 281 28259ft 277kts
07-Apr-19 15:19 35.953095 -108.523954 281 28260ft 277kts
07-Apr-19 15:20 35.959941 -108.618465 281 28265ft 276kts
07-Apr-19 15:21 35.966736 -108.713318 281 28275ft 276kts
07-Apr-19 15:22 35.973433 -108.807892 281 28277ft 276kts
07-Apr-19 15:23 35.980057 -108.902459 281 28279ft 276kts
07-Apr-19 15:24 35.986618 -108.997229 280 28279ft 275kts
07-Apr-19 15:25 35.993047 -109.091196 280 28278ft 275kts
07-Apr-19 15:26 35.999453 -109.185939 280 28278ft 274kts
07-Apr-19 15:27 36.005717 -109.279548 279 28277ft 273kts
07-Apr-19 15:28 36.011896 -109.373152 279 28260ft 273kts
07-Apr-19 15:29 36.017991 -109.466536 279 28258ft 272kts
07-Apr-19 15:30 36.024004 -109.559856 279 28257ft 271kts
07-Apr-19 15:31 36.029953 -109.653211 279 28257ft 270kts
07-Apr-19 15:32 36.035808 -109.746231 279 28262ft 271kts
07-Apr-19 15:33 36.041602 -109.839493 279 28262ft 271kts
07-Apr-19 15:34 36.047324 -109.932758 279 28261ft 271kts
07-Apr-19 15:35 36.052953 -110.025681 279 28250ft 271kts
07-Apr-19 15:36 36.058546 -110.119219 279 28239ft 271kts
07-Apr-19 15:37 36.064054 -110.212580 279 28232ft 271kts
07-Apr-19 15:38 36.069477 -110.305715 279 28231ft 271kts
07-Apr-19 15:39 36.074826 -110.398846 279 28232ft 270kts
07-Apr-19 15:40 36.080105 -110.491918 279 28228ft 270kts
07-Apr-19 15:41 36.085274 -110.584462 279 28223ft 269kts
07-Apr-19 15:42 36.090398 -110.677641 278 28225ft 269kts
07-Apr-19 15:43 36.095437 -110.770225 278 28224ft 269kts
07-Apr-19 15:44 36.100368 -110.862259 278 28225ft 269kts
07-Apr-19 15:45 36.105268 -110.955205 278 28227ft 269kts
07-Apr-19 15:46 36.110074 -111.047549 278 28224ft 269kts
07-Apr-19 15:47 36.114807 -111.140112 278 28223ft 269kts
07-Apr-19 15:48 36.119494 -111.232911 278 28233ft 268kts
07-Apr-19 15:49 36.133411 -111.322078 289 28238ft 263kts
07-Apr-19 15:50 36.153379 -111.409479 289 28243ft 262kts
07-Apr-19 15:51 36.173136 -111.496104 289 28276ft 261kts
07-Apr-19 15:52 36.192853 -111.582884 289 28302ft 261kts
07-Apr-19 15:53 36.212634 -111.670286 289 28315ft 262kts
07-Apr-19 15:54 36.232267 -111.757327 289 28322ft 262kts
07-Apr-19 15:55 36.251987 -111.845084 289 28257ft 265kts
07-Apr-19 15:56 36.271656 -111.932965 289 28270ft 264kts
07-Apr-19 15:57 36.291265 -112.020874 289 28284ft 263kts
07-Apr-19 15:58 36.310789 -112.108767 289 28293ft 262kts
07-Apr-19 15:59 36.330054 -112.195809 289 28292ft 262kts
07-Apr-19 16:00 36.349291 -112.283057 289 28292ft 262kts
07-Apr-19 16:01 36.368499 -112.370507 289 28291ft 261kts
07-Apr-19 16:02 36.387483 -112.457229 289 28290ft 260kts
07-Apr-19 16:03 36.406333 -112.543735 289 28289ft 260kts
07-Apr-19 16:04 36.425209 -112.630641 288 28289ft 259kts
07-Apr-19 16:05 36.443992 -112.717483 288 28295ft 259kts
07-Apr-19 16:06 36.462648 -112.804060 288 28294ft 259kts
07-Apr-19 16:07 36.481294 -112.890918 288 28281ft 259kts
07-Apr-19 16:08 36.499738 -112.977155 288 28262ft 258kts
07-Apr-19 16:09 36.517886 -113.062348 288 27457ft 255kts
07-Apr-19 16:10 36.536096 -113.148175 288 26289ft 257kts
07-Apr-19 16:11 36.554374 -113.234650 288 25135ft 258kts
07-Apr-19 16:12 36.572432 -113.320397 288 24224ft 255kts
07-Apr-19 16:13 36.590463 -113.406365 288 23140ft 258kts
07-Apr-19 16:14 36.608662 -113.493485 288 21996ft 260kts
07-Apr-19 16:15 36.626877 -113.581004 288 20838ft 261kts
07-Apr-19 16:16 36.644681 -113.666891 288 19709ft 262kts
07-Apr-19 16:17 36.662404 -113.752668 288 18587ft 263kts
07-Apr-19 16:18 36.680661 -113.841426 288 17418ft 264kts
07-Apr-19 16:19 36.698926 -113.930599 287 16244ft 266kts
07-Apr-19 16:20 36.717299 -114.020682 287 15060ft 268kts
07-Apr-19 16:21 36.735753 -114.111493 287 13865ft 270kts
07-Apr-19 16:22 36.753623 -114.199887 287 12711ft 256kts
07-Apr-19 16:23 36.762493 -114.285343 244 11709ft 262kts
07-Apr-19 16:24 36.715666 -114.356469 237 10542ft 265kts
07-Apr-19 16:25 36.674169 -114.430095 237 10015ft 244kts
07-Apr-19 16:26 36.636201 -114.497460 237 10009ft 229kts
07-Apr-19 16:27 36.600648 -114.560077 237 10010ft 216kts
07-Apr-19 16:28 36.564872 -114.625159 237 8872ft 233kts
07-Apr-19 16:29 36.529067 -114.692536 237 7839ft 232kts
07-Apr-19 16:30 36.494035 -114.758787 237 7023ft 227kts
07-Apr-19 16:31 36.459147 -114.824147 237 6222ft 224kts
07-Apr-19 16:32 36.421301 -114.881126 220 6095ft 206kts
07-Apr-19 16:33 36.371633 -114.916302 207 5591ft 203kts
07-Apr-19 16:34 36.324665 -114.944018 212 3927ft 158kts
07-Apr-19 16:35 36.295814 -114.971626 224 3016ft 118kts
07-Apr-19 16:36 36.274042 -114.995639 222 2644ft 102kts
07-Apr-19 16:37 36.254058 -115.017297 221 2038ft 87kts
07-Apr-19 16:38 36.238580 -115.033918 222 1852ft 47kts
07-Apr-19 16:39 36.236653 -115.038945 46 1850ft 25kts
07-Apr-19 16:40 36.241700 -115.033218 42 1863ft 18kts
07-Apr-19 16:41 36.246263 -115.034021 304 1879ft 23kts
07-Apr-19 16:42 36.246413 -115.034878 269 1882ft 0kts

Navigation Log

Ident Type
Flight plan parsing failed, navigation log unavailable